Time,TemperatureF,DewpointF,PressureIn,WindDirection,WindDirectionDegrees,WindSpeedMPH,WindSpeedGustMPH,Humidity,HourlyPrecipIn,Conditions,Clouds,dailyrainin,SoftwareType,DateUTC
2013-02-05 00:00:00,66.5,66.5,29.90,SSW,199,7.4,11.5,100,0.00,CLR,,0.00,WeatherDisplay:10.37,2013-02-05 06:00:00,
2013-02-05 00:05:00,66.5,66.5,29.89,SSE,167,6.6,10.4,100,0.00,CLR,,0.00,WeatherDisplay:10.37,2013-02-05 06:05:00,
2013-02-05 00:10:00,66.4,66.4,29.89,SSE,155,6.5,11.5,100,0.00,CLR,,0.00,WeatherDisplay:10.37,2013-02-05 06:10:00,
2013-02-05 00:15:00,66.3,66.3,29.89,South,188,5.7,10.4,100,0.00,CLR,,0.00,WeatherDisplay:10.37,2013-02-05 06:15:00,
2013-02-05 00:20:00,66.2,66.2,29.89,SE,130,7.0,10.8,100,0.00,CLR,,0.00,WeatherDisplay:10.37,2013-02-05 06:20:00,
2013-02-05 00:25:00,66.3,66.3,29.89,South,176,6.8,10.8,100,0.00,CLR,,0.00,WeatherDisplay:10.37,2013-02-05 06:25:00,
2013-02-05 00:30:00,66.2,66.2,29.89,South,171,5.5,10.8,100,0.00,CLR,,0.00,WeatherDisplay:10.37,2013-02-05 06:30:00,
2013-02-05 00:36:00,66.2,66.2,29.89,South,182,4.8,10.8,100,0.00,CLR,,0.00,WeatherDisplay:10.37,2013-02-05 06:36:00,
2013-02-05 00:41:00,66.2,66.2,29.89,SSW,209,5.6,10.8,100,0.00,CLR,,0.00,WeatherDisplay:10.37,2013-02-05 06:41:00,
2013-02-05 00:46:00,66.1,66.1,29.89,SSE,164,5.6,8.6,100,0.00,CLR,,0.00,WeatherDisplay:10.37,2013-02-05 06:46:00,
2013-02-05 00:51:00,66.1,66.1,29.88,South,191,4.2,6.9,100,0.00,CLR,,0.00,WeatherDisplay:10.37,2013-02-05 06:51:00,
2013-02-05 00:56:00,66.1,66.1,29.89,SSW,209,4.8,8.1,100,0.00,CLR,,0.00,WeatherDisplay:10.37,2013-02-05 06:56:00,
2013-02-05 01:01:00,66.0,66.0,29.89,SSW,198,5.9,9.2,100,0.00,CLR,,0.00,WeatherDisplay:10.37,2013-02-05 07:01:00,
2013-02-05 01:06:00,65.9,65.9,29.89,SSW,202,6.2,8.9,100,0.00,CLR,,0.00,WeatherDisplay:10.37,2013-02-05 07:06:00,
2013-02-05 01:11:00,65.9,65.9,29.89,SSW,196,5.6,9.2,100,0.00,CLR,,0.00,WeatherDisplay:10.37,2013-02-05 07:11:00,
2013-02-05 01:16:00,65.9,65.9,29.89,SW,215,5.7,8.1,100,0.00,CLR,,0.00,WeatherDisplay:10.37,2013-02-05 07:16:00,
2013-02-05 01:21:00,65.8,65.8,29.89,SSW,205,5.6,8.1,100,0.00,CLR,,0.00,WeatherDisplay:10.37,2013-02-05 07:21:00,
2013-02-05 01:26:00,65.8,65.8,29.89,SSW,203,5.1,9.2,100,0.00,CLR,,0.00,WeatherDisplay:10.37,2013-02-05 07:26:00,
2013-02-05 01:31:00,65.7,65.7,29.89,SSW,202,5.7,9.3,100,0.00,CLR,,0.00,WeatherDisplay:10.37,2013-02-05 07:31:00,
2013-02-05 01:36:00,65.7,65.7,29.89,SSE,167,5.0,9.3,100,0.00,CLR,,0.00,WeatherDisplay:10.37,2013-02-05 07:36:00,
2013-02-05 01:41:00,65.7,65.7,29.89,SSW,210,6.0,8.1,100,0.00,CLR,,0.00,WeatherDisplay:10.37,2013-02-05 07:41:00,
2013-02-05 01:46:00,65.6,65.6,29.89,SSW,198,6.4,9.2,100,0.00,CLR,,0.00,WeatherDisplay:10.37,2013-02-05 07:46:00,
2013-02-05 01:51:00,65.6,65.6,29.88,SSW,192,4.8,7.5,100,0.00,CLR,,0.00,WeatherDisplay:10.37,2013-02-05 07:51:00,
2013-02-05 01:56:00,65.5,65.5,29.88,SSW,199,5.4,8.1,100,0.00,CLR,,0.00,WeatherDisplay:10.37,2013-02-05 07:56:00,
2013-02-05 02:01:00,65.5,65.5,29.88,SSW,198,3.8,7.3,100,0.00,CLR,,0.00,WeatherDisplay:10.37,2013-02-05 08:01:00,
2013-02-05 02:06:00,65.4,65.4,29.88,South,178,4.8,6.9,100,0.00,CLR,,0.00,WeatherDisplay:10.37,2013-02-05 08:06:00,
2013-02-05 02:11:00,65.4,65.4,29.88,South,188,4.6,8.1,100,0.00,CLR,,0.00,WeatherDisplay:10.37,2013-02-05 08:11:00,
2013-02-05 02:16:00,65.4,65.4,29.88,SSW,198,4.8,9.2,100,0.00,CLR,,0.00,WeatherDisplay:10.37,2013-02-05 08:16:00,
2013-02-05 02:21:00,65.4,65.4,29.88,SSW,198,5.4,9.2,100,0.00,CLR,,0.00,WeatherDisplay:10.37,2013-02-05 08:21:00,
2013-02-05 02:26:00,65.3,65.3,29.88,South,185,5.1,8.1,100,0.00,CLR,,0.00,WeatherDisplay:10.37,2013-02-05 08:26:00,
2013-02-05 02:31:00,65.3,65.3,29.88,SSW,192,3.4,6.2,100,0.00,CLR,,0.00,WeatherDisplay:10.37,2013-02-05 08:31:00,
2013-02-05 02:36:00,65.3,65.3,29.88,SSW,198,2.9,6.9,100,0.00,CLR,,0.00,WeatherDisplay:10.37,2013-02-05 08:36:00,
2013-02-05 02:41:00,65.2,65.2,29.88,South,172,3.7,6.9,100,0.00,CLR,,0.00,WeatherDisplay:10.37,2013-02-05 08:41:00,
2013-02-05 02:46:00,65.2,65.2,29.87,SSW,212,4.9,7.0,100,0.00,CLR,,0.00,WeatherDisplay:10.37,2013-02-05 08:46:00,
2013-02-05 02:51:00,65.2,65.2,29.88,South,189,3.0,7.0,100,0.00,CLR,,0.00,WeatherDisplay:10.37,2013-02-05 08:51:00,
2013-02-05 02:56:00,65.2,65.2,29.88,South,184,0.0,7.0,100,0.00,CLR,,0.00,WeatherDisplay:10.37,2013-02-05 08:56:00,
2013-02-05 03:01:00,65.0,65.0,29.88,South,176,0.0,7.0,100,0.00,CLR,,0.00,WeatherDisplay:10.37,2013-02-05 09:01:00,
2013-02-05 03:06:00,65.0,65.0,29.88,South,174,3.6,6.8,100,0.00,CLR,,0.00,WeatherDisplay:10.37,2013-02-05 09:06:00,
2013-02-05 03:11:00,65.0,65.0,29.88,SSW,192,2.9,4.7,100,0.00,CLR,,0.00,WeatherDisplay:10.37,2013-02-05 09:11:00,
2013-02-05 03:16:00,65.0,65.0,29.88,South,191,3.2,4.8,100,0.00,CLR,,0.00,WeatherDisplay:10.37,2013-02-05 09:16:00,
2013-02-05 03:21:00,65.0,65.0,29.88,South,174,3.9,6.9,100,0.00,CLR,,0.00,WeatherDisplay:10.37,2013-02-05 09:21:00,
2013-02-05 03:26:00,64.9,64.9,29.88,South,182,2.2,4.6,100,0.00,CLR,,0.00,WeatherDisplay:10.37,2013-02-05 09:26:00,
2013-02-05 03:31:00,64.9,64.9,29.88,SSW,202,4.2,6.9,100,0.00,CLR,,0.00,WeatherDisplay:10.37,2013-02-05 09:31:00,
2013-02-05 03:36:00,64.9,64.9,29.88,SSW,199,2.9,5.8,100,0.00,CLR,,0.00,WeatherDisplay:10.37,2013-02-05 09:36:00,
2013-02-05 03:41:00,64.8,64.8,29.88,SSW,193,3.6,6.2,100,0.00,CLR,,0.00,WeatherDisplay:10.37,2013-02-05 09:41:00,
2013-02-05 03:46:00,64.8,64.8,29.89,South,189,2.8,4.6,100,0.00,CLR,,0.00,WeatherDisplay:10.37,2013-02-05 09:46:00,
2013-02-05 03:51:00,64.8,64.8,29.89,South,185,3.0,5.0,100,0.00,CLR,,0.00,WeatherDisplay:10.37,2013-02-05 09:51:00,
2013-02-05 03:56:00,64.7,64.7,29.89,SSE,155,1.3,3.5,100,0.00,CLR,,0.00,WeatherDisplay:10.37,2013-02-05 09:56:00,
2013-02-05 04:01:00,64.6,64.6,29.89,SSE,158,0.0,0.0,100,0.00,CLR,,0.00,WeatherDisplay:10.37,2013-02-05 10:01:00,
2013-02-05 04:06:00,64.5,64.5,29.89,South,184,3.2,4.9,100,0.00,CLR,,0.00,WeatherDisplay:10.37,2013-02-05 10:06:00,
2013-02-05 04:11:00,64.6,64.6,29.89,South,191,3.9,5.8,100,0.00,CLR,,0.00,WeatherDisplay:10.37,2013-02-05 10:11:00,
2013-02-05 04:16:00,64.6,64.6,29.89,SSW,208,4.6,7.0,100,0.00,CLR,,0.00,WeatherDisplay:10.37,2013-02-05 10:16:00,
2013-02-05 04:21:00,64.6,64.6,29.89,SSW,192,4.5,7.0,100,0.00,CLR,,0.00,WeatherDisplay:10.37,2013-02-05 10:21:00,
2013-02-05 04:26:00,64.5,64.5,29.89,SSW,196,4.5,7.0,100,0.00,CLR,,0.00,WeatherDisplay:10.37,2013-02-05 10:26:00,
2013-02-05 04:31:00,64.4,64.4,29.89,South,191,3.3,7.0,100,0.00,CLR,,0.00,WeatherDisplay:10.37,2013-02-05 10:31:00,
2013-02-05 04:37:00,64.4,64.4,29.89,SSW,192,4.3,5.8,100,0.00,CLR,,0.00,WeatherDisplay:10.37,2013-02-05 10:37:00,
2013-02-05 04:42:00,64.6,64.6,29.89,South,185,3.4,6.9,100,0.00,CLR,,0.00,WeatherDisplay:10.37,2013-02-05 10:42:00,
2013-02-05 04:47:00,64.5,64.5,29.89,SSW,209,5.8,8.1,100,0.00,CLR,,0.00,WeatherDisplay:10.37,2013-02-05 10:47:00,
2013-02-05 04:52:00,64.5,64.5,29.89,SSW,206,5.0,8.1,100,0.00,CLR,,0.00,WeatherDisplay:10.37,2013-02-05 10:52:00,
2013-02-05 04:57:00,64.6,64.6,29.89,SSW,209,4.9,6.9,100,0.00,CLR,,0.00,WeatherDisplay:10.37,2013-02-05 10:57:00,
2013-02-05 05:02:00,64.5,64.5,29.89,South,176,4.3,6.9,100,0.00,CLR,,0.00,WeatherDisplay:10.37,2013-02-05 11:02:00,
2013-02-05 05:07:00,64.5,64.5,29.89,South,191,2.9,5.8,100,0.00,CLR,,0.00,WeatherDisplay:10.37,2013-02-05 11:07:00,
2013-02-05 05:12:00,64.4,64.4,29.89,SW,217,3.7,5.8,100,0.00,CLR,,0.00,WeatherDisplay:10.37,2013-02-05 11:12:00,
2013-02-05 05:17:00,64.4,64.4,29.90,SSW,203,3.9,5.8,100,0.00,CLR,,0.00,WeatherDisplay:10.37,2013-02-05 11:17:00,
2013-02-05 05:22:00,64.4,64.4,29.90,SSW,198,5.1,7.1,100,0.00,CLR,,0.00,WeatherDisplay:10.37,2013-02-05 11:22:00,
2013-02-05 05:27:00,64.4,64.4,29.90,SW,215,3.6,5.8,100,0.00,CLR,,0.00,WeatherDisplay:10.37,2013-02-05 11:27:00,
2013-02-05 05:32:00,64.4,64.4,29.90,SSW,203,5.2,7.5,100,0.00,CLR,,0.00,WeatherDisplay:10.37,2013-02-05 11:32:00,
2013-02-05 05:37:00,64.4,64.4,29.90,South,186,4.8,7.5,100,0.00,CLR,,0.00,WeatherDisplay:10.37,2013-02-05 11:37:00,
2013-02-05 05:42:00,64.4,64.4,29.91,South,185,5.4,8.1,100,0.00,CLR,,0.00,WeatherDisplay:10.37,2013-02-05 11:42:00,
2013-02-05 05:47:00,64.5,64.5,29.90,South,189,4.8,8.1,100,0.00,CLR,,0.00,WeatherDisplay:10.37,2013-02-05 11:47:00,
2013-02-05 05:52:00,64.6,64.6,29.91,SSW,199,3.4,5.1,100,0.00,CLR,,0.00,WeatherDisplay:10.37,2013-02-05 11:52:00,
2013-02-05 05:57:00,64.6,64.6,29.91,South,184,4.5,7.0,100,0.00,CLR,,0.00,WeatherDisplay:10.37,2013-02-05 11:57:00,
2013-02-05 06:02:00,64.6,64.6,29.91,SW,223,4.2,5.8,100,0.00,CLR,,0.00,WeatherDisplay:10.37,2013-02-05 12:02:00,
2013-02-05 06:07:00,64.6,64.6,29.91,SSW,196,5.0,6.8,100,0.00,CLR,,0.00,WeatherDisplay:10.37,2013-02-05 12:07:00,
2013-02-05 06:12:00,64.6,64.6,29.91,SSW,195,4.9,7.0,100,0.00,CLR,,0.00,WeatherDisplay:10.37,2013-02-05 12:12:00,
2013-02-05 06:17:00,64.6,64.6,29.91,South,188,4.7,7.0,100,0.00,CLR,,0.00,WeatherDisplay:10.37,2013-02-05 12:17:00,
2013-02-05 06:22:00,64.6,64.6,29.91,SSW,200,4.9,7.0,100,0.00,CLR,,0.00,WeatherDisplay:10.37,2013-02-05 12:22:00,
2013-02-05 06:27:00,64.6,64.6,29.91,South,182,3.8,7.0,100,0.00,CLR,,0.00,WeatherDisplay:10.37,2013-02-05 12:27:00,
2013-02-05 06:32:00,64.6,64.6,29.91,South,188,3.6,5.8,100,0.00,CLR,,0.00,WeatherDisplay:10.37,2013-02-05 12:32:00,
2013-02-05 06:37:00,64.5,64.5,29.91,South,179,3.2,5.9,100,0.00,CLR,,0.00,WeatherDisplay:10.37,2013-02-05 12:37:00,
2013-02-05 06:42:00,64.6,64.6,29.91,South,191,1.9,5.2,100,0.00,CLR,,0.00,WeatherDisplay:10.37,2013-02-05 12:42:00,
2013-02-05 06:47:00,64.6,64.6,29.92,SW,215,4.3,5.8,100,0.00,CLR,,0.00,WeatherDisplay:10.37,2013-02-05 12:47:00,
2013-02-05 06:52:00,64.6,64.6,29.92,South,176,3.3,7.3,100,0.00,CLR,,0.00,WeatherDisplay:10.37,2013-02-05 12:52:00,
2013-02-05 06:57:00,64.4,64.4,29.92,SSW,198,3.8,5.9,100,0.00,CLR,,0.00,WeatherDisplay:10.37,2013-02-05 12:57:00,
2013-02-05 07:02:00,64.4,64.4,29.92,SSW,199,3.8,6.9,100,0.00,CLR,,0.00,WeatherDisplay:10.37,2013-02-05 13:02:00,
2013-02-05 07:07:00,64.4,64.4,29.93,SSW,200,4.5,6.9,100,0.00,CLR,,0.00,WeatherDisplay:10.37,2013-02-05 13:07:00,
2013-02-05 07:12:00,64.3,64.3,29.93,SSW,205,4.5,8.1,100,0.00,CLR,,0.00,WeatherDisplay:10.37,2013-02-05 13:12:00,
2013-02-05 07:17:00,64.4,64.4,29.93,SSW,193,3.5,5.9,100,0.00,CLR,,0.00,WeatherDisplay:10.37,2013-02-05 13:17:00,
2013-02-05 07:22:00,64.4,64.4,29.93,SSW,193,2.7,5.0,100,0.00,CLR,,0.00,WeatherDisplay:10.37,2013-02-05 13:22:00,
2013-02-05 07:27:00,64.5,64.5,29.93,South,188,3.1,5.8,100,0.00,CLR,,0.00,WeatherDisplay:10.37,2013-02-05 13:27:00,
2013-02-05 07:32:00,64.4,64.4,29.93,SSW,202,1.7,5.8,100,0.00,CLR,,0.00,WeatherDisplay:10.37,2013-02-05 13:32:00,
2013-02-05 07:37:00,64.4,64.4,29.94,SE,141,2.6,5.8,100,0.00,CLR,,0.00,WeatherDisplay:10.37,2013-02-05 13:37:00,
2013-02-05 07:42:00,64.5,64.5,29.94,South,186,1.5,3.5,100,0.00,CLR,,0.00,WeatherDisplay:10.37,2013-02-05 13:42:00,
2013-02-05 07:47:00,64.6,64.6,29.94,South,169,0.4,2.3,100,0.00,CLR,,0.00,WeatherDisplay:10.37,2013-02-05 13:47:00,
2013-02-05 07:52:00,64.7,64.7,29.94,SSE,161,2.3,4.9,100,0.00,CLR,,0.00,WeatherDisplay:10.37,2013-02-05 13:52:00,
2013-02-05 07:57:00,64.7,64.7,29.94,South,174,2.6,4.6,100,0.00,CLR,,0.00,WeatherDisplay:10.37,2013-02-05 13:57:00,
2013-02-05 08:02:00,64.8,64.8,29.93,SSE,154,5.0,6.7,100,0.00,CLR,,0.00,WeatherDisplay:10.37,2013-02-05 14:02:00,
2013-02-05 08:07:00,64.9,64.9,29.94,SSE,157,4.3,7.0,100,0.00,CLR,,0.00,WeatherDisplay:10.37,2013-02-05 14:07:00,
2013-02-05 08:12:00,64.9,64.9,29.94,South,181,4.0,7.1,100,0.00,CLR,,0.00,WeatherDisplay:10.37,2013-02-05 14:12:00,
2013-02-05 08:18:00,64.9,64.9,29.94,SSE,155,5.8,5.8,100,0.00,CLR,,0.00,WeatherDisplay:10.37,2013-02-05 14:18:00,
2013-02-05 08:23:00,65.0,65.0,29.94,South,178,4.0,5.9,100,0.00,CLR,,0.00,WeatherDisplay:10.37,2013-02-05 14:23:00,
2013-02-05 08:28:00,64.9,64.9,29.95,SSW,195,2.9,4.6,100,0.00,CLR,,0.00,WeatherDisplay:10.37,2013-02-05 14:28:00,
2013-02-05 08:33:00,65.0,65.0,29.95,South,188,4.4,5.8,100,0.00,CLR,,0.00,WeatherDisplay:10.37,2013-02-05 14:33:00,
2013-02-05 08:38:00,65.0,65.0,29.95,SW,219,2.5,5.8,100,0.00,CLR,,0.00,WeatherDisplay:10.37,2013-02-05 14:38:00,
2013-02-05 08:43:00,65.1,65.1,29.95,South,179,4.6,6.9,100,0.00,CLR,,0.00,WeatherDisplay:10.37,2013-02-05 14:43:00,
2013-02-05 08:48:00,65.1,65.1,29.95,SE,127,2.4,6.9,100,0.00,CLR,,0.00,WeatherDisplay:10.37,2013-02-05 14:48:00,
2013-02-05 08:53:00,65.2,65.2,29.95,South,191,4.1,5.8,100,0.00,CLR,,0.00,WeatherDisplay:10.37,2013-02-05 14:53:00,
2013-02-05 08:58:00,65.3,65.3,29.95,SSW,203,4.3,6.9,100,0.00,CLR,,0.00,WeatherDisplay:10.37,2013-02-05 14:58:00,
2013-02-05 09:03:00,65.5,65.5,29.95,SSW,192,5.4,7.0,100,0.00,CLR,,0.00,WeatherDisplay:10.37,2013-02-05 15:03:00,
2013-02-05 09:08:00,65.8,65.8,29.96,SSW,193,2.6,6.9,100,0.00,CLR,,0.00,WeatherDisplay:10.37,2013-02-05 15:08:00,
2013-02-05 09:13:00,66.0,66.0,29.96,SW,232,4.8,8.1,100,0.00,CLR,,0.00,WeatherDisplay:10.37,2013-02-05 15:13:00,
2013-02-05 09:18:00,66.2,66.2,29.96,SW,230,4.8,8.1,100,0.00,CLR,,0.00,WeatherDisplay:10.37,2013-02-05 15:18:00,
2013-02-05 09:23:00,66.3,66.3,29.96,South,182,5.8,8.3,100,0.00,CLR,,0.00,WeatherDisplay:10.37,2013-02-05 15:23:00,
2013-02-05 09:28:00,66.2,66.2,29.97,South,188,5.2,9.2,100,0.00,CLR,,0.00,WeatherDisplay:10.37,2013-02-05 15:28:00,
2013-02-05 09:33:00,66.2,66.2,29.96,SSW,202,3.9,8.7,100,0.00,CLR,,0.00,WeatherDisplay:10.37,2013-02-05 15:33:00,
2013-02-05 09:38:00,66.4,66.4,29.97,South,185,3.0,5.8,100,0.00,CLR,,0.00,WeatherDisplay:10.37,2013-02-05 15:38:00,
2013-02-05 09:43:00,66.4,66.4,29.97,South,176,6.8,9.6,100,0.00,CLR,,0.00,WeatherDisplay:10.37,2013-02-05 15:43:00,
2013-02-05 09:48:00,66.4,66.4,29.97,South,191,4.8,9.6,100,0.00,CLR,,0.00,WeatherDisplay:10.37,2013-02-05 15:48:00,
2013-02-05 09:53:00,66.4,66.4,29.97,SSW,196,6.1,9.2,100,0.00,CLR,,0.00,WeatherDisplay:10.37,2013-02-05 15:53:00,
2013-02-05 09:58:00,66.5,66.5,29.98,SSW,212,4.6,9.2,100,0.00,CLR,,0.00,WeatherDisplay:10.37,2013-02-05 15:58:00,
2013-02-05 10:03:00,66.4,66.4,29.97,South,185,5.1,9.2,100,0.00,CLR,,0.00,WeatherDisplay:10.37,2013-02-05 16:03:00,
2013-02-05 10:08:00,66.4,66.4,29.98,SSE,165,6.0,10.4,100,0.00,CLR,,0.00,WeatherDisplay:10.37,2013-02-05 16:08:00,
2013-02-05 10:13:00,66.8,66.8,29.98,SW,216,6.1,8.2,100,0.00,CLR,,0.00,WeatherDisplay:10.37,2013-02-05 16:13:00,
2013-02-05 10:18:00,66.9,66.9,29.98,SSW,202,6.7,9.3,100,0.00,CLR,,0.00,WeatherDisplay:10.37,2013-02-05 16:18:00,
2013-02-05 10:23:00,67.0,67.0,29.98,SSW,198,7.4,10.2,100,0.00,CLR,,0.00,WeatherDisplay:10.37,2013-02-05 16:23:00,
2013-02-05 10:28:00,67.1,67.1,29.98,SSW,195,5.4,8.1,100,0.00,CLR,,0.00,WeatherDisplay:10.37,2013-02-05 16:28:00,
2013-02-05 10:33:00,67.3,67.3,29.98,SSW,199,5.0,8.1,100,0.00,CLR,,0.00,WeatherDisplay:10.37,2013-02-05 16:33:00,
2013-02-05 10:38:00,67.7,67.7,29.98,South,182,6.0,9.2,100,0.00,CLR,,0.00,WeatherDisplay:10.37,2013-02-05 16:38:00,
2013-02-05 10:43:00,67.8,67.8,29.98,SSE,165,5.7,8.1,100,0.00,CLR,,0.00,WeatherDisplay:10.37,2013-02-05 16:43:00,
2013-02-05 10:49:00,68.2,68.2,29.97,South,172,4.7,7.0,100,0.00,CLR,,0.00,WeatherDisplay:10.37,2013-02-05 16:49:00,
2013-02-05 10:54:00,68.6,68.6,29.98,SSE,160,6.9,9.3,100,0.00,CLR,,0.00,WeatherDisplay:10.37,2013-02-05 16:54:00,
2013-02-05 10:59:00,68.8,68.8,29.98,South,169,5.8,9.2,100,0.00,CLR,,0.00,WeatherDisplay:10.37,2013-02-05 16:59:00,
2013-02-05 11:04:00,69.2,69.2,29.98,SSE,165,5.9,9.2,100,0.00,CLR,,0.00,WeatherDisplay:10.37,2013-02-05 17:04:00,
2013-02-05 11:09:00,69.6,69.6,29.97,SSE,152,6.8,9.6,100,0.00,CLR,,0.00,WeatherDisplay:10.37,2013-02-05 17:09:00,
2013-02-05 11:14:00,70.0,70.0,29.97,SSE,155,7.1,9.3,100,0.00,CLR,,0.00,WeatherDisplay:10.37,2013-02-05 17:14:00,
2013-02-05 11:19:00,70.0,70.0,29.97,SSE,151,6.0,9.8,100,0.00,CLR,,0.00,WeatherDisplay:10.37,2013-02-05 17:19:00,
2013-02-05 11:24:00,70.5,70.5,29.97,SSE,151,5.8,9.2,100,0.00,CLR,,0.00,WeatherDisplay:10.37,2013-02-05 17:24:00,
2013-02-05 11:29:00,70.8,70.8,29.96,South,175,5.9,9.8,100,0.00,CLR,,0.00,WeatherDisplay:10.37,2013-02-05 17:29:00,
2013-02-05 11:34:00,71.4,71.4,29.96,South,172,4.6,8.1,100,0.00,CLR,,0.00,WeatherDisplay:10.37,2013-02-05 17:34:00,
2013-02-05 11:39:00,71.3,71.3,29.96,SE,126,4.9,9.2,100,0.00,CLR,,0.00,WeatherDisplay:10.37,2013-02-05 17:39:00,
2013-02-05 11:44:00,71.8,71.8,29.96,SSE,160,5.2,9.2,100,0.00,CLR,,0.00,WeatherDisplay:10.37,2013-02-05 17:44:00,
2013-02-05 11:49:00,72.3,72.0,29.96,SE,138,4.8,9.2,99,0.00,CLR,,0.00,WeatherDisplay:10.37,2013-02-05 17:49:00,
2013-02-05 11:54:00,72.5,71.9,29.96,SSE,161,6.6,9.1,98,0.00,CLR,,0.00,WeatherDisplay:10.37,2013-02-05 17:54:00,
2013-02-05 11:59:00,72.5,71.6,29.96,SE,143,7.1,9.2,97,0.00,CLR,,0.00,WeatherDisplay:10.37,2013-02-05 17:59:00,
2013-02-05 12:04:00,72.3,71.4,29.95,SSE,168,5.9,9.2,97,0.00,CLR,,0.00,WeatherDisplay:10.37,2013-02-05 18:04:00,
2013-02-05 12:09:00,72.1,71.2,29.95,SSE,151,6.5,9.4,97,0.00,CLR,,0.00,WeatherDisplay:10.37,2013-02-05 18:09:00,
2013-02-05 12:14:00,72.3,71.4,29.95,SSE,148,5.5,9.2,97,0.00,CLR,,0.00,WeatherDisplay:10.37,2013-02-05 18:14:00,
2013-02-05 12:19:00,72.9,71.7,29.95,SE,144,4.8,9.2,96,0.00,CLR,,0.00,WeatherDisplay:10.37,2013-02-05 18:19:00,
2013-02-05 12:24:00,73.5,72.3,29.95,SSE,157,4.9,6.9,96,0.00,CLR,,0.00,WeatherDisplay:10.37,2013-02-05 18:24:00,
2013-02-05 12:29:00,74.0,72.2,29.95,SSE,158,7.5,9.2,94,0.00,CLR,,0.00,WeatherDisplay:10.37,2013-02-05 18:29:00,
2013-02-05 12:34:00,74.0,71.5,29.95,SSE,151,5.7,8.2,92,0.00,CLR,,0.00,WeatherDisplay:10.37,2013-02-05 18:34:00,
2013-02-05 12:39:00,73.9,71.4,29.95,SSE,155,6.1,9.2,92,0.00,CLR,,0.00,WeatherDisplay:10.37,2013-02-05 18:39:00,
2013-02-05 12:44:00,74.0,71.2,29.94,SSE,151,5.6,9.3,91,0.00,CLR,,0.00,WeatherDisplay:10.37,2013-02-05 18:44:00,
2013-02-05 12:49:00,74.4,71.6,29.94,SE,137,4.3,9.3,91,0.00,CLR,,0.00,WeatherDisplay:10.37,2013-02-05 18:49:00,
2013-02-05 12:54:00,75.1,71.3,29.94,ESE,112,4.2,6.7,88,0.00,CLR,,0.00,WeatherDisplay:10.37,2013-02-05 18:54:00,
2013-02-05 12:59:00,76.0,71.5,29.93,SE,124,6.4,8.6,86,0.00,CLR,,0.00,WeatherDisplay:10.37,2013-02-05 18:59:00,
2013-02-05 13:04:00,76.7,71.1,29.93,South,174,4.3,8.4,83,0.00,CLR,,0.00,WeatherDisplay:10.37,2013-02-05 19:04:00,
2013-02-05 13:09:00,76.8,70.5,29.93,SE,143,4.8,7.0,81,0.00,CLR,,0.00,WeatherDisplay:10.37,2013-02-05 19:09:00,
2013-02-05 13:14:00,76.5,70.2,29.93,SSE,150,4.4,8.1,81,0.00,CLR,,0.00,WeatherDisplay:10.37,2013-02-05 19:14:00,
2013-02-05 13:19:00,76.4,69.8,29.92,SSE,147,6.6,8.8,80,0.00,CLR,,0.00,WeatherDisplay:10.37,2013-02-05 19:19:00,
2013-02-05 13:24:00,76.7,70.8,29.92,SE,136,5.1,8.1,82,0.00,CLR,,0.00,WeatherDisplay:10.37,2013-02-05 19:24:00,
2013-02-05 13:29:00,77.1,70.5,29.92,SSE,150,4.6,8.1,80,0.00,CLR,,0.00,WeatherDisplay:10.37,2013-02-05 19:29:00,
2013-02-05 13:34:00,77.2,70.2,29.92,SE,131,4.4,8.1,79,0.00,CLR,,0.00,WeatherDisplay:10.37,2013-02-05 19:34:00,
2013-02-05 13:39:00,77.8,70.4,29.92,South,176,5.0,8.0,78,0.00,CLR,,0.00,WeatherDisplay:10.37,2013-02-05 19:39:00,
2013-02-05 13:44:00,77.9,69.7,29.91,SSE,150,5.0,7.5,76,0.00,CLR,,0.00,WeatherDisplay:10.37,2013-02-05 19:44:00,
2013-02-05 13:49:00,78.0,70.2,29.91,SE,144,5.1,8.1,77,0.00,CLR,,0.00,WeatherDisplay:10.37,2013-02-05 19:49:00,
2013-02-05 13:54:00,78.2,69.6,29.91,SE,130,5.3,8.6,75,0.00,CLR,,0.00,WeatherDisplay:10.37,2013-02-05 19:54:00,
2013-02-05 14:00:00,78.3,70.1,29.91,ESE,120,6.0,8.6,76,0.00,CLR,,0.00,WeatherDisplay:10.37,2013-02-05 20:00:00,
2013-02-05 14:05:00,78.4,69.8,29.90,SE,133,6.8,9.2,75,0.00,CLR,,0.00,WeatherDisplay:10.37,2013-02-05 20:05:00,
2013-02-05 14:10:00,77.8,70.0,29.90,South,186,6.6,10.4,77,0.00,CLR,,0.00,WeatherDisplay:10.37,2013-02-05 20:10:00,
2013-02-05 14:15:00,77.7,70.3,29.90,SE,144,8.2,11.5,78,0.00,CLR,,0.00,WeatherDisplay:10.37,2013-02-05 20:15:00,
2013-02-05 14:20:00,77.5,70.1,29.90,South,182,6.9,8.8,78,0.00,CLR,,0.00,WeatherDisplay:10.37,2013-02-05 20:20:00,
2013-02-05 14:25:00,77.5,70.1,29.90,SE,138,5.6,8.1,78,0.00,CLR,,0.00,WeatherDisplay:10.37,2013-02-05 20:25:00,
2013-02-05 14:30:00,77.5,70.5,29.90,SE,136,6.7,9.3,79,0.00,CLR,,0.00,WeatherDisplay:10.37,2013-02-05 20:30:00,
2013-02-05 14:35:00,78.3,70.5,29.90,SSE,161,4.3,9.8,77,0.00,CLR,,0.00,WeatherDisplay:10.37,2013-02-05 20:35:00,
2013-02-05 14:40:00,78.3,70.1,29.90,ESE,112,5.3,9.2,76,0.00,CLR,,0.00,WeatherDisplay:10.37,2013-02-05 20:40:00,
2013-02-05 14:45:00,77.5,70.1,29.90,SSE,157,4.5,8.1,78,0.00,CLR,,0.00,WeatherDisplay:10.37,2013-02-05 20:45:00,
2013-02-05 14:50:00,76.9,70.3,29.89,ESE,123,4.6,8.1,80,0.00,CLR,,0.00,WeatherDisplay:10.37,2013-02-05 20:50:00,
2013-02-05 14:56:00,76.8,70.5,29.89,East,97,3.2,8.9,81,0.00,CLR,,0.00,WeatherDisplay:10.37,2013-02-05 20:56:00,
2013-02-05 15:01:00,76.8,70.5,29.90,ESE,109,4.2,8.0,81,0.00,CLR,,0.00,WeatherDisplay:10.37,2013-02-05 21:01:00,
2013-02-05 15:06:00,77.2,70.9,29.90,ENE,78,5.3,8.2,81,0.00,CLR,,0.00,WeatherDisplay:10.37,2013-02-05 21:06:00,
2013-02-05 15:11:00,77.8,70.4,29.89,SE,133,6.5,10.4,78,0.00,CLR,,0.00,WeatherDisplay:10.37,2013-02-05 21:11:00,
2013-02-05 15:16:00,77.4,70.4,29.89,ESE,106,5.6,10.6,79,0.00,CLR,,0.00,WeatherDisplay:10.37,2013-02-05 21:16:00,
2013-02-05 15:21:00,77.0,70.4,29.90,SE,144,4.6,9.4,80,0.00,CLR,,0.00,WeatherDisplay:10.37,2013-02-05 21:21:00,
2013-02-05 15:26:00,76.3,70.0,29.90,SE,144,5.2,9.2,81,0.00,CLR,,0.00,WeatherDisplay:10.37,2013-02-05 21:26:00,
2013-02-05 15:31:00,75.8,69.9,29.89,SSE,148,5.3,8.1,82,0.00,CLR,,0.00,WeatherDisplay:10.37,2013-02-05 21:31:00,
2013-02-05 15:36:00,75.3,70.1,29.90,ESE,119,4.2,9.3,84,0.00,CLR,,0.00,WeatherDisplay:10.37,2013-02-05 21:36:00,
2013-02-05 15:41:00,74.8,70.0,29.90,SE,124,3.4,8.1,85,0.00,CLR,,0.00,WeatherDisplay:10.37,2013-02-05 21:41:00,
2013-02-05 15:46:00,74.9,70.4,29.89,SE,127,5.5,10.4,86,0.00,CLR,,0.00,WeatherDisplay:10.37,2013-02-05 21:46:00,
2013-02-05 15:51:00,75.2,70.4,29.89,SE,145,5.9,10.4,85,0.00,CLR,,0.00,WeatherDisplay:10.37,2013-02-05 21:51:00,
2013-02-05 15:56:00,75.9,70.7,29.89,SE,140,8.3,10.9,84,0.00,CLR,,0.00,WeatherDisplay:10.37,2013-02-05 21:56:00,
2013-02-05 16:01:00,76.0,70.5,29.89,ESE,113,5.2,8.1,83,0.00,CLR,,0.00,WeatherDisplay:10.37,2013-02-05 22:01:00,
2013-02-05 16:06:00,75.9,70.4,29.89,SE,144,6.0,8.1,83,0.00,CLR,,0.00,WeatherDisplay:10.37,2013-02-05 22:06:00,
2013-02-05 16:11:00,75.7,70.2,29.90,ESE,119,5.7,8.4,83,0.00,CLR,,0.00,WeatherDisplay:10.37,2013-02-05 22:11:00,
2013-02-05 16:16:00,75.0,69.8,29.89,East,85,6.7,9.6,84,0.00,CLR,,0.00,WeatherDisplay:10.37,2013-02-05 22:16:00,
2013-02-05 16:21:00,74.8,70.0,29.89,East,86,7.3,11.5,85,0.00,CLR,,0.00,WeatherDisplay:10.37,2013-02-05 22:21:00,
2013-02-05 16:26:00,74.6,70.1,29.89,ESE,104,8.8,11.8,86,0.00,CLR,,0.00,WeatherDisplay:10.37,2013-02-05 22:26:00,
2013-02-05 16:31:00,74.2,69.7,29.89,East,83,9.4,12.7,86,0.00,CLR,,0.00,WeatherDisplay:10.37,2013-02-05 22:31:00,
2013-02-05 16:36:00,73.6,69.8,29.89,SSE,148,7.5,15.4,88,0.00,CLR,,0.00,WeatherDisplay:10.37,2013-02-05 22:36:00,
2013-02-05 16:41:00,73.3,70.2,29.89,ESE,110,5.4,15.4,90,0.00,CLR,,0.00,WeatherDisplay:10.37,2013-02-05 22:41:00,
2013-02-05 16:46:00,73.2,70.1,29.89,SE,128,6.1,9.2,90,0.00,CLR,,0.00,WeatherDisplay:10.37,2013-02-05 22:46:00,
2013-02-05 16:51:00,73.1,70.3,29.89,ESE,103,7.6,12.9,91,0.00,CLR,,0.00,WeatherDisplay:10.37,2013-02-05 22:51:00,
2013-02-05 16:56:00,72.9,70.4,29.89,ESE,117,6.5,12.7,92,0.00,CLR,,0.00,WeatherDisplay:10.37,2013-02-05 22:56:00,
2013-02-05 17:01:00,72.7,70.2,29.89,ESE,102,6.1,12.7,92,0.00,CLR,,0.00,WeatherDisplay:10.37,2013-02-05 23:01:00,
2013-02-05 17:06:00,72.4,69.9,29.89,ENE,72,5.6,9.2,92,0.00,CLR,,0.00,WeatherDisplay:10.37,2013-02-05 23:06:00,
2013-02-05 17:11:00,72.1,70.0,29.89,East,86,6.3,12.7,93,0.00,CLR,,0.00,WeatherDisplay:10.37,2013-02-05 23:11:00,
2013-02-05 17:16:00,71.5,69.7,29.89,ESE,120,8.5,13.1,94,0.00,CLR,,0.00,WeatherDisplay:10.37,2013-02-05 23:16:00,
2013-02-05 17:21:00,71.1,69.6,29.89,SSE,147,7.0,12.7,95,0.00,CLR,,0.00,WeatherDisplay:10.37,2013-02-05 23:21:00,
2013-02-05 17:26:00,70.6,69.4,29.89,ESE,107,6.8,16.1,96,0.00,CLR,,0.00,WeatherDisplay:10.37,2013-02-05 23:26:00,
2013-02-05 17:31:00,70.5,69.3,29.89,East,92,7.5,16.1,96,0.00,CLR,,0.00,WeatherDisplay:10.37,2013-02-05 23:31:00,
2013-02-05 17:36:00,70.5,69.6,29.89,ESE,113,8.0,11.5,97,0.00,CLR,,0.00,WeatherDisplay:10.37,2013-02-05 23:36:00,
2013-02-05 17:41:00,70.5,69.6,29.89,East,99,7.1,11.5,97,0.00,CLR,,0.00,WeatherDisplay:10.37,2013-02-05 23:41:00,
2013-02-05 17:46:00,70.5,69.9,29.89,East,85,9.5,13.8,98,0.00,CLR,,0.00,WeatherDisplay:10.37,2013-02-05 23:46:00,
2013-02-05 17:51:00,70.6,70.0,29.89,East,99,8.2,13.8,98,0.00,CLR,,0.00,WeatherDisplay:10.37,2013-02-05 23:51:00,
2013-02-05 17:56:00,70.5,69.9,29.89,East,83,7.1,11.5,98,0.00,CLR,,0.00,WeatherDisplay:10.37,2013-02-05 23:56:00,
2013-02-05 18:01:00,70.4,69.8,29.89,ESE,104,9.8,15.0,98,0.00,CLR,,0.00,WeatherDisplay:10.37,2013-02-06 00:01:00,
2013-02-05 18:06:00,70.2,69.6,29.89,East,100,8.9,12.9,98,0.00,CLR,,0.00,WeatherDisplay:10.37,2013-02-06 00:06:00,
2013-02-05 18:11:00,70.0,69.4,29.89,East,100,8.1,11.5,98,0.00,CLR,,0.00,WeatherDisplay:10.37,2013-02-06 00:11:00,
2013-02-05 18:16:00,69.8,69.2,29.89,ESE,116,5.9,11.5,98,0.00,CLR,,0.00,WeatherDisplay:10.37,2013-02-06 00:16:00,
2013-02-05 18:21:00,69.6,69.3,29.90,East,86,7.8,13.7,99,0.00,CLR,,0.00,WeatherDisplay:10.37,2013-02-06 00:21:00,
2013-02-05 18:26:00,69.5,69.2,29.90,ESE,112,8.2,11.6,99,0.00,CLR,,0.00,WeatherDisplay:10.37,2013-02-06 00:26:00,
2013-02-05 18:32:00,69.5,69.2,29.90,East,93,7.3,9.2,99,0.00,CLR,,0.00,WeatherDisplay:10.37,2013-02-06 00:32:00,
2013-02-05 18:37:00,69.5,69.5,29.90,ESE,120,8.2,12.8,100,0.00,CLR,,0.00,WeatherDisplay:10.37,2013-02-06 00:37:00,
2013-02-05 18:42:00,69.4,69.4,29.90,ESE,114,6.5,12.7,100,0.00,CLR,,0.00,WeatherDisplay:10.37,2013-02-06 00:42:00,
2013-02-05 18:47:00,69.5,69.5,29.91,ESE,116,7.5,11.9,100,0.00,CLR,,0.00,WeatherDisplay:10.37,2013-02-06 00:47:00,
2013-02-05 18:52:00,69.4,69.4,29.91,SE,128,5.7,10.8,100,0.00,CLR,,0.00,WeatherDisplay:10.37,2013-02-06 00:52:00,
2013-02-05 18:57:00,69.4,69.4,29.91,East,86,6.2,13.8,100,0.00,CLR,,0.00,WeatherDisplay:10.37,2013-02-06 00:57:00,
2013-02-05 19:02:00,69.2,69.2,29.91,East,86,7.5,11.6,100,0.00,CLR,,0.00,WeatherDisplay:10.37,2013-02-06 01:02:00,
2013-02-05 19:07:00,69.1,69.1,29.91,SE,134,7.4,12.7,100,0.00,CLR,,0.00,WeatherDisplay:10.37,2013-02-06 01:07:00,
2013-02-05 19:12:00,69.1,69.1,29.92,ESE,110,6.3,9.4,100,0.00,CLR,,0.00,WeatherDisplay:10.37,2013-02-06 01:12:00,
2013-02-05 19:17:00,69.1,69.1,29.92,ESE,114,7.3,11.5,100,0.00,CLR,,0.00,WeatherDisplay:10.37,2013-02-06 01:17:00,
2013-02-05 19:22:00,69.1,69.1,29.92,East,92,6.3,9.2,100,0.00,CLR,,0.00,WeatherDisplay:10.37,2013-02-06 01:22:00,
2013-02-05 19:27:00,69.1,69.1,29.92,ESE,109,4.4,8.1,100,0.00,CLR,,0.00,WeatherDisplay:10.37,2013-02-06 01:27:00,
2013-02-05 19:32:00,69.1,69.1,29.92,ESE,123,8.3,11.5,100,0.00,CLR,,0.00,WeatherDisplay:10.37,2013-02-06 01:32:00,
2013-02-05 19:37:00,69.1,69.1,29.93,ESE,121,4.9,8.1,100,0.00,CLR,,0.00,WeatherDisplay:10.37,2013-02-06 01:37:00,
2013-02-05 19:42:00,69.1,69.1,29.92,ESE,103,6.4,10.9,100,0.00,CLR,,0.00,WeatherDisplay:10.37,2013-02-06 01:42:00,
2013-02-05 19:47:00,69.0,69.0,29.93,SE,133,4.4,9.2,100,0.00,CLR,,0.00,WeatherDisplay:10.37,2013-02-06 01:47:00,
2013-02-05 19:52:00,68.9,68.9,29.92,East,97,6.9,12.1,100,0.00,CLR,,0.00,WeatherDisplay:10.37,2013-02-06 01:52:00,
2013-02-05 19:57:00,68.8,68.8,29.93,ESE,106,7.6,15.0,100,0.00,CLR,,0.00,WeatherDisplay:10.37,2013-02-06 01:57:00,
2013-02-05 20:02:00,68.8,68.8,29.92,SE,134,7.8,12.2,100,0.00,CLR,,0.00,WeatherDisplay:10.37,2013-02-06 02:02:00,
2013-02-05 20:07:00,68.8,68.8,29.92,SE,137,8.1,13.8,100,0.00,CLR,,0.00,WeatherDisplay:10.37,2013-02-06 02:07:00,
2013-02-05 20:12:00,68.7,68.7,29.92,ESE,120,9.0,16.1,100,0.00,CLR,,0.00,WeatherDisplay:10.37,2013-02-06 02:12:00,
2013-02-05 20:18:00,68.7,68.7,29.93,SE,127,7.4,11.5,100,0.00,CLR,,0.00,WeatherDisplay:10.37,2013-02-06 02:18:00,
2013-02-05 20:23:00,68.8,68.8,29.93,SE,127,6.4,11.5,100,0.00,CLR,,0.00,WeatherDisplay:10.37,2013-02-06 02:23:00,
2013-02-05 20:28:00,68.9,68.9,29.93,ESE,110,6.6,11.9,100,0.00,CLR,,0.00,WeatherDisplay:10.37,2013-02-06 02:28:00,
2013-02-05 20:33:00,69.1,69.1,29.93,SE,131,6.2,11.9,100,0.00,CLR,,0.00,WeatherDisplay:10.37,2013-02-06 02:33:00,
2013-02-05 20:38:00,69.1,69.1,29.93,SE,131,6.9,12.7,100,0.00,CLR,,0.00,WeatherDisplay:10.37,2013-02-06 02:38:00,
2013-02-05 20:43:00,69.3,69.3,29.93,ESE,123,6.7,10.4,100,0.00,CLR,,0.00,WeatherDisplay:10.37,2013-02-06 02:43:00,
2013-02-05 20:48:00,69.2,69.2,29.93,SE,131,5.3,9.2,100,0.00,CLR,,0.00,WeatherDisplay:10.37,2013-02-06 02:48:00,
2013-02-05 20:53:00,69.1,69.1,29.93,ESE,114,4.7,9.8,100,0.00,CLR,,0.00,WeatherDisplay:10.37,2013-02-06 02:53:00,
2013-02-05 20:58:00,69.0,69.0,29.94,ESE,121,6.1,11.1,100,0.00,CLR,,0.00,WeatherDisplay:10.37,2013-02-06 02:58:00,
2013-02-05 21:03:00,69.0,69.0,29.94,ESE,106,5.5,9.0,100,0.00,CLR,,0.00,WeatherDisplay:10.37,2013-02-06 03:03:00,
2013-02-05 21:08:00,68.9,68.9,29.94,ESE,104,7.5,11.7,100,0.00,CLR,,0.00,WeatherDisplay:10.37,2013-02-06 03:08:00,
2013-02-05 21:13:00,69.0,69.0,29.94,ESE,112,6.8,11.5,100,0.00,CLR,,0.00,WeatherDisplay:10.37,2013-02-06 03:13:00,
2013-02-05 21:18:00,69.1,69.1,29.93,SSE,157,8.3,14.3,100,0.00,CLR,,0.00,WeatherDisplay:10.37,2013-02-06 03:18:00,
2013-02-05 21:23:00,69.1,69.1,29.93,ESE,120,8.9,14.3,100,0.00,CLR,,0.00,WeatherDisplay:10.37,2013-02-06 03:23:00,
2013-02-05 21:28:00,69.1,69.1,29.93,ENE,76,6.4,13.9,100,0.00,CLR,,0.00,WeatherDisplay:10.37,2013-02-06 03:28:00,
2013-02-05 21:33:00,69.0,69.0,29.93,SE,124,9.3,15.0,100,0.00,CLR,,0.00,WeatherDisplay:10.37,2013-02-06 03:33:00,
2013-02-05 21:38:00,69.0,69.0,29.93,SE,133,5.3,12.1,100,0.00,CLR,,0.00,WeatherDisplay:10.37,2013-02-06 03:38:00,
2013-02-05 21:43:00,68.7,68.7,29.93,ESE,113,6.1,13.8,100,0.00,CLR,,0.00,WeatherDisplay:10.37,2013-02-06 03:43:00,
2013-02-05 21:48:00,68.7,68.7,29.93,ESE,110,5.7,9.2,100,0.00,CLR,,0.00,WeatherDisplay:10.37,2013-02-06 03:48:00,
2013-02-05 21:53:00,68.6,68.6,29.93,ESE,119,6.9,12.7,100,0.00,CLR,,0.00,WeatherDisplay:10.37,2013-02-06 03:53:00,
2013-02-05 21:58:00,68.4,68.4,29.93,ESE,104,6.1,13.0,100,0.00,CLR,,0.00,WeatherDisplay:10.37,2013-02-06 03:58:00,
2013-02-05 22:03:00,68.3,68.3,29.93,East,93,7.3,12.1,100,0.00,CLR,,0.00,WeatherDisplay:10.37,2013-02-06 04:03:00,
2013-02-05 22:09:00,68.3,68.3,29.93,ESE,112,6.4,13.1,100,0.00,CLR,,0.00,WeatherDisplay:10.37,2013-02-06 04:09:00,
2013-02-05 22:14:00,68.3,68.3,29.93,ESE,104,6.3,13.8,100,0.00,CLR,,0.00,WeatherDisplay:10.37,2013-02-06 04:14:00,
2013-02-05 22:19:00,68.3,68.3,29.93,SE,137,7.7,11.8,100,0.00,CLR,,0.00,WeatherDisplay:10.37,2013-02-06 04:19:00,
2013-02-05 22:24:00,68.3,68.3,29.94,East,96,8.1,12.7,100,0.00,CLR,,0.00,WeatherDisplay:10.37,2013-02-06 04:24:00,
2013-02-05 22:29:00,68.3,68.3,29.94,East,92,6.4,13.8,100,0.00,CLR,,0.00,WeatherDisplay:10.37,2013-02-06 04:29:00,
2013-02-05 22:34:00,68.3,68.3,29.94,SE,136,5.3,12.6,100,0.00,CLR,,0.00,WeatherDisplay:10.37,2013-02-06 04:34:00,
2013-02-05 22:39:00,68.4,68.4,29.94,ESE,116,6.3,12.7,100,0.00,CLR,,0.00,WeatherDisplay:10.37,2013-02-06 04:39:00,
2013-02-05 22:44:00,68.4,68.4,29.94,East,89,7.1,12.7,100,0.00,CLR,,0.00,WeatherDisplay:10.37,2013-02-06 04:44:00,
2013-02-05 22:49:00,68.4,68.4,29.94,ESE,121,7.6,11.5,100,0.00,CLR,,0.00,WeatherDisplay:10.37,2013-02-06 04:49:00,
2013-02-05 22:54:00,68.4,68.4,29.95,ESE,123,8.1,11.6,100,0.00,CLR,,0.00,WeatherDisplay:10.37,2013-02-06 04:54:00,
2013-02-05 22:59:00,68.4,68.4,29.95,ESE,117,9.1,13.8,100,0.00,CLR,,0.00,WeatherDisplay:10.37,2013-02-06 04:59:00,
2013-02-05 23:00:00,68.4,68.4,29.95,ESE,123,7.8,13.8,100,0.00,CLR,,0.00,WeatherDisplay:10.37,2013-02-06 05:00:00,
2013-02-05 23:01:00,68.4,68.4,29.95,ESE,112,7.5,12.7,100,0.00,CLR,,0.00,WeatherDisplay:10.37,2013-02-06 05:01:00,
2013-02-05 23:05:00,68.5,68.5,29.94,SE,127,8.1,13.4,100,0.00,CLR,,0.00,WeatherDisplay:10.37,2013-02-06 05:05:00,
2013-02-05 23:10:00,68.5,68.5,29.94,ESE,119,8.2,13.8,100,0.00,CLR,,0.00,WeatherDisplay:10.37,2013-02-06 05:10:00,
2013-02-05 23:15:00,68.5,68.5,29.94,ESE,110,10.4,10.4,100,0.00,CLR,,0.00,WeatherDisplay:10.37,2013-02-06 05:15:00,
2013-02-05 23:21:00,68.4,68.4,29.94,ESE,113,6.4,10.9,100,0.00,CLR,,0.00,WeatherDisplay:10.37,2013-02-06 05:21:00,
2013-02-05 23:26:00,68.5,68.5,29.94,ESE,119,4.9,9.2,100,0.00,CLR,,0.00,WeatherDisplay:10.37,2013-02-06 05:26:00,
2013-02-05 23:31:00,68.4,68.4,29.94,SE,136,6.1,10.6,100,0.00,CLR,,0.00,WeatherDisplay:10.37,2013-02-06 05:31:00,
2013-02-05 23:36:00,68.2,68.2,29.94,SE,140,5.3,9.2,100,0.00,CLR,,0.00,WeatherDisplay:10.37,2013-02-06 05:36:00,
2013-02-05 23:41:00,68.1,68.1,29.94,ESE,107,5.8,11.7,100,0.00,CLR,,0.00,WeatherDisplay:10.37,2013-02-06 05:41:00,
2013-02-05 23:46:00,68.1,68.1,29.94,East,99,4.0,10.0,100,0.00,CLR,,0.00,WeatherDisplay:10.37,2013-02-06 05:46:00,
2013-02-05 23:51:00,68.1,68.1,29.95,ESE,112,4.6,9.2,100,0.00,CLR,,0.00,WeatherDisplay:10.37,2013-02-06 05:51:00,
2013-02-05 23:56:00,68.1,68.1,29.95,East,100,3.3,9.2,100,0.00,CLR,,0.00,WeatherDisplay:10.37,2013-02-06 05:56:00,